Test XHTML 1.0 Strict Page for WU-History Testing
Station Historical Data
 
Daily Summary for October 22, 2014 Units:  Both    English   Metric
« Previous Day
Next Day »
Daily Weekly Monthly Yearly Custom
  Current: High: Low: Average:
Temperature: 48.7 °F /  9.3 °C 53.2 °F /  11.8 °C 43.3 °F /  6.3 °C 48.5 °F /  9.2 °C
Dew Point: 48.7 °F /  9.3 °C 49.5 °F /  9.7 °C 42.5 °F /  5.8 °C 46.5 °F /  8.1 °C
Humidity: 100% 100% 85% 93%
Wind Speed: 0.0mph /  0km/h 8.1mph /  13km/h - 2.1mph /  3.4km/h
Wind Gust: 0.0mph /  0km/h 8.1mph /  13km/h - -
WindCalm - - WSW
Pressure: 30.14 in /  1020.5 hPa 30.25 in /  1024.3 hPa 30.13 in /  1020.2 hPa -
Precipitation: 0.01 in /  0.25 mm      
Historical Graphs
 
 
Weather-Above Climate History
Untitled
Tabular Data for October 22, 2014
Time Temperature Dew Point Pressure Wind Wind Speed Wind Gust Humidity Rainfall Rate (Hourly)
00:01 43.5 °F /  6.4 °C 43.0 °F /  6.1 °C 30.13in /  1020.2hPa WNW 1.2mph /  1.9km/h   98% 0.01in /  0.25cm
00:06 43.5 °F /  6.4 °C 43.0 °F /  6.1 °C 30.13in /  1020.2hPa Calm     98% 0.01in /  0.25cm
00:11 43.5 °F /  6.4 °C 43.0 °F /  6.1 °C 30.13in /  1020.2hPa Calm     98% 0.00in /  0cm
00:16 43.3 °F /  6.3 °C 42.5 °F /  5.8 °C 30.13in /  1020.2hPa WNW 2.3mph /  3.7km/h   97% 0.00in /  0cm
00:21 43.5 °F /  6.4 °C 43.0 °F /  6.1 °C 30.13in /  1020.2hPa Calm     98% 0.00in /  0cm
00:26 43.5 °F /  6.4 °C 43.0 °F /  6.1 °C 30.13in /  1020.2hPa West 0.6mph /  1km/h 0.6mph /  1km/h 98% 0.00in /  0cm
00:31 43.7 °F /  6.5 °C 43.2 °F /  6.2 °C 30.14in /  1020.5hPa Calm     98% 0.00in /  0cm
00:36 43.7 °F /  6.5 °C 43.2 °F /  6.2 °C 30.14in /  1020.5hPa WNW 2.9mph /  4.7km/h 2.9mph /  4.7km/h 98% 0.00in /  0cm
00:41 44.1 °F /  6.7 °C 43.5 °F /  6.4 °C 30.14in /  1020.5hPa West 2.3mph /  3.7km/h 2.3mph /  3.7km/h 98% 0.00in /  0cm
00:46 44.4 °F /  6.9 °C 43.9 °F /  6.6 °C 30.14in /  1020.5hPa WSW 2.3mph /  3.7km/h 2.3mph /  3.7km/h 98% 0.00in /  0cm
00:51 44.4 °F /  6.9 °C 43.9 °F /  6.6 °C 30.14in /  1020.5hPa Calm     98% 0.00in /  0cm
00:56 44.1 °F /  6.7 °C 43.5 °F /  6.4 °C 30.14in /  1020.5hPa South 1.2mph /  1.9km/h   98% 0.00in /  0cm
01:01 43.7 °F /  6.5 °C 43.2 °F /  6.2 °C 30.14in /  1020.5hPa Calm   0.2mph /  0.3km/h 98% 0.00in /  0cm
01:06 43.5 °F /  6.4 °C 43.0 °F /  6.1 °C 30.14in /  1020.5hPa SW 2.5mph /  4km/h 2.5mph /  4km/h 98% 0.00in /  0cm
01:11 43.5 °F /  6.4 °C 42.7 °F /  5.9 °C 30.14in /  1020.5hPa South 1.2mph /  1.9km/h 1.2mph /  1.9km/h 97% 0.00in /  0cm
01:16 43.7 °F /  6.5 °C 43.2 °F /  6.2 °C 30.14in /  1020.5hPa NW 2.9mph /  4.7km/h 2.9mph /  4.7km/h 98% 0.00in /  0cm
01:21 44.2 °F /  6.8 °C 43.4 °F /  6.3 °C 30.14in /  1020.5hPa SW 2.3mph /  3.7km/h 2.3mph /  3.7km/h 97% 0.00in /  0cm
01:26 44.4 °F /  6.9 °C 43.6 °F /  6.4 °C 30.14in /  1020.5hPa SSW 0.8mph /  1.3km/h 0.8mph /  1.3km/h 97% 0.00in /  0cm
01:31 44.2 °F /  6.8 °C 43.4 °F /  6.3 °C 30.14in /  1020.5hPa West 2.3mph /  3.7km/h 2.3mph /  3.7km/h 97% 0.00in /  0cm
01:36 44.2 °F /  6.8 °C 43.4 °F /  6.3 °C 30.14in /  1020.5hPa SW 1.1mph /  1.8km/h 1.1mph /  1.8km/h 97% 0.00in /  0cm
01:41 44.2 °F /  6.8 °C 43.4 °F /  6.3 °C 30.14in /  1020.5hPa SW 3.5mph /  5.6km/h 3.5mph /  5.6km/h 97% 0.00in /  0cm
01:46 44.2 °F /  6.8 °C 43.4 °F /  6.3 °C 30.14in /  1020.5hPa South 3.5mph /  5.6km/h 3.5mph /  5.6km/h 97% 0.00in /  0cm
01:51 44.2 °F /  6.8 °C 43.4 °F /  6.3 °C 30.15in /  1020.9hPa WSW 3.5mph /  5.6km/h   97% 0.00in /  0cm
01:56 44.1 °F /  6.7 °C 43.3 °F /  6.3 °C 30.15in /  1020.9hPa Calm   0.6mph /  1km/h 97% 0.00in /  0cm
02:01 44.1 °F /  6.7 °C 43.3 °F /  6.3 °C 30.15in /  1020.9hPa SW 2.9mph /  4.7km/h 2.9mph /  4.7km/h 97% 0.00in /  0cm
02:07 44.4 °F /  6.9 °C 43.6 °F /  6.4 °C 30.16in /  1021.2hPa WSW 3.5mph /  5.6km/h 3.5mph /  5.6km/h 97% 0.00in /  0cm
02:12 44.4 °F /  6.9 °C 43.4 °F /  6.3 °C 30.16in /  1021.2hPa WSW 3.5mph /  5.6km/h 3.5mph /  5.6km/h 96% 0.00in /  0cm
02:17 44.6 °F /  7 °C 43.5 °F /  6.4 °C 30.17in /  1021.6hPa SW 4.6mph /  7.4km/h 4.6mph /  7.4km/h 96% 0.00in /  0cm
02:22 44.6 °F /  7 °C 43.5 °F /  6.4 °C 30.16in /  1021.2hPa WSW 3.5mph /  5.6km/h 3.5mph /  5.6km/h 96% 0.00in /  0cm
02:27 45.0 °F /  7.2 °C 43.9 °F /  6.6 °C 30.16in /  1021.2hPa South 2.3mph /  3.7km/h 2.3mph /  3.7km/h 96% 0.00in /  0cm
02:32 45.1 °F /  7.3 °C 44.1 °F /  6.7 °C 30.16in /  1021.2hPa WSW 4.6mph /  7.4km/h 4.6mph /  7.4km/h 96% 0.00in /  0cm
02:37 45.3 °F /  7.4 °C 44.2 °F /  6.8 °C 30.16in /  1021.2hPa West 2.3mph /  3.7km/h   96% 0.00in /  0cm
02:42 45.3 °F /  7.4 °C 44.2 °F /  6.8 °C 30.17in /  1021.6hPa Calm   0.4mph /  0.6km/h 96% 0.00in /  0cm
02:47 45.3 °F /  7.4 °C 44.2 °F /  6.8 °C 30.17in /  1021.6hPa ESE 2.3mph /  3.7km/h   96% 0.00in /  0cm
02:52 45.3 °F /  7.4 °C 44.5 °F /  6.9 °C 30.17in /  1021.6hPa WNW 3.5mph /  5.6km/h   97% 0.00in /  0cm
02:57 45.3 °F /  7.4 °C 44.2 °F /  6.8 °C 30.17in /  1021.6hPa South 2.3mph /  3.7km/h 2.3mph /  3.7km/h 96% 0.00in /  0cm
03:02 45.3 °F /  7.4 °C 44.2 °F /  6.8 °C 30.17in /  1021.6hPa NNW 2.3mph /  3.7km/h 2.3mph /  3.7km/h 96% 0.00in /  0cm
03:07 45.0 °F /  7.2 °C 43.9 °F /  6.6 °C 30.17in /  1021.6hPa WNW 3.5mph /  5.6km/h 3.5mph /  5.6km/h 96% 0.00in /  0cm
03:12 45.1 °F /  7.3 °C 44.1 °F /  6.7 °C 30.17in /  1021.6hPa Calm   0.3mph /  0.5km/h 96% 0.00in /  0cm
03:17 45.0 °F /  7.2 °C 43.9 °F /  6.6 °C 30.17in /  1021.6hPa West 1.2mph /  1.9km/h 1.2mph /  1.9km/h 96% 0.00in /  0cm
03:22 44.8 °F /  7.1 °C 43.7 °F /  6.5 °C 30.17in /  1021.6hPa Calm     96% 0.00in /  0cm
03:27 45.0 °F /  7.2 °C 43.9 °F /  6.6 °C 30.17in /  1021.6hPa SW 2.3mph /  3.7km/h 2.3mph /  3.7km/h 96% 0.00in /  0cm
03:32 44.8 °F /  7.1 °C 43.7 °F /  6.5 °C 30.17in /  1021.6hPa West 3.5mph /  5.6km/h   96% 0.00in /  0cm
03:37 44.8 °F /  7.1 °C 43.7 °F /  6.5 °C 30.17in /  1021.6hPa WSW 3.2mph /  5.1km/h 3.2mph /  5.1km/h 96% 0.00in /  0cm
03:42 45.1 °F /  7.3 °C 44.1 °F /  6.7 °C 30.17in /  1021.6hPa West 4.6mph /  7.4km/h 4.6mph /  7.4km/h 96% 0.00in /  0cm
03:47 45.3 °F /  7.4 °C 44.2 °F /  6.8 °C 30.17in /  1021.6hPa ESE 2.3mph /  3.7km/h 2.3mph /  3.7km/h 96% 0.00in /  0cm
03:52 45.3 °F /  7.4 °C 44.2 °F /  6.8 °C 30.17in /  1021.6hPa West 3.4mph /  5.5km/h 3.4mph /  5.5km/h 96% 0.00in /  0cm
03:57 45.0 °F /  7.2 °C 44.2 °F /  6.8 °C 30.17in /  1021.6hPa Calm     97% 0.00in /  0cm
04:02 44.8 °F /  7.1 °C 44.0 °F /  6.7 °C 30.17in /  1021.6hPa WNW 6.9mph /  11.1km/h 6.9mph /  11.1km/h 97% 0.00in /  0cm
04:07 44.8 °F /  7.1 °C 44.0 °F /  6.7 °C 30.17in /  1021.6hPa West 5.6mph /  9km/h 5.6mph /  9km/h 97% 0.00in /  0cm
04:12 45.0 °F /  7.2 °C 44.2 °F /  6.8 °C 30.17in /  1021.6hPa SSW 3.5mph /  5.6km/h 3.5mph /  5.6km/h 97% 0.00in /  0cm
04:17 45.5 °F /  7.5 °C 44.4 °F /  6.9 °C 30.18in /  1021.9hPa SSW 1.2mph /  1.9km/h 1.2mph /  1.9km/h 96% 0.00in /  0cm
04:22 45.3 °F /  7.4 °C 44.2 °F /  6.8 °C 30.18in /  1021.9hPa SSW 4.6mph /  7.4km/h 4.6mph /  7.4km/h 96% 0.00in /  0cm
04:27 45.5 °F /  7.5 °C 44.4 °F /  6.9 °C 30.18in /  1021.9hPa WSW 4.6mph /  7.4km/h 4.6mph /  7.4km/h 96% 0.00in /  0cm
04:32 45.7 °F /  7.6 °C 44.6 °F /  7 °C 30.18in /  1021.9hPa WSW 2.3mph /  3.7km/h 2.3mph /  3.7km/h 96% 0.00in /  0cm
04:37 45.9 °F /  7.7 °C 44.8 °F /  7.1 °C 30.18in /  1021.9hPa WNW 3.5mph /  5.6km/h 3.5mph /  5.6km/h 96% 0.00in /  0cm
04:42 46.0 °F /  7.8 °C 45.0 °F /  7.2 °C 30.19in /  1022.2hPa WSW 8.1mph /  13km/h 8.1mph /  13km/h 96% 0.00in /  0cm
04:47 45.9 °F /  7.7 °C 44.5 °F /  6.9 °C 30.19in /  1022.2hPa WNW 3.5mph /  5.6km/h 3.5mph /  5.6km/h 95% 0.00in /  0cm
04:52 45.9 °F /  7.7 °C 44.5 °F /  6.9 °C 30.19in /  1022.2hPa WNW 4.8mph /  7.7km/h 4.8mph /  7.7km/h 95% 0.00in /  0cm
04:57 46.2 °F /  7.9 °C 44.9 °F /  7.2 °C 30.19in /  1022.2hPa South 3.5mph /  5.6km/h 3.5mph /  5.6km/h 95% 0.00in /  0cm
05:02 46.2 °F /  7.9 °C 44.9 °F /  7.2 °C 30.19in /  1022.2hPa SSW 2.3mph /  3.7km/h 2.3mph /  3.7km/h 95% 0.00in /  0cm
05:07 46.4 °F /  8 °C 45.0 °F /  7.2 °C 30.19in /  1022.2hPa WNW 3.0mph /  4.8km/h 3.0mph /  4.8km/h 95% 0.00in /  0cm
05:12 46.4 °F /  8 °C 45.0 °F /  7.2 °C 30.19in /  1022.2hPa WSW 2.3mph /  3.7km/h 2.3mph /  3.7km/h 95% 0.00in /  0cm
05:17 46.6 °F /  8.1 °C 45.2 °F /  7.3 °C 30.19in /  1022.2hPa WSW 1.9mph /  3.1km/h 1.9mph /  3.1km/h 95% 0.00in /  0cm
05:22 46.6 °F /  8.1 °C 44.9 °F /  7.2 °C 30.19in /  1022.2hPa West 3.5mph /  5.6km/h 3.5mph /  5.6km/h 94% 0.00in /  0cm
05:27 46.8 °F /  8.2 °C 45.4 °F /  7.4 °C 30.20in /  1022.6hPa South 2.4mph /  3.9km/h 2.4mph /  3.9km/h 95% 0.00in /  0cm
05:32 46.8 °F /  8.2 °C 45.4 °F /  7.4 °C 30.20in /  1022.6hPa WSW 4.6mph /  7.4km/h 4.6mph /  7.4km/h 95% 0.00in /  0cm
05:37 46.8 °F /  8.2 °C 45.1 °F /  7.3 °C 30.20in /  1022.6hPa West 2.3mph /  3.7km/h   94% 0.00in /  0cm
05:42 46.8 °F /  8.2 °C 45.4 °F /  7.4 °C 30.19in /  1022.2hPa WSW 3.5mph /  5.6km/h 3.5mph /  5.6km/h 95% 0.00in /  0cm
05:47 46.6 °F /  8.1 °C 44.9 °F /  7.2 °C 30.21in /  1022.9hPa West 0.8mph /  1.3km/h 0.8mph /  1.3km/h 94% 0.00in /  0cm
05:52 46.4 °F /  8 °C 44.8 °F /  7.1 °C 30.20in /  1022.6hPa Calm     94% 0.00in /  0cm
05:57 46.4 °F /  8 °C 45.0 °F /  7.2 °C 30.21in /  1022.9hPa Calm   0.2mph /  0.3km/h 95% 0.00in /  0cm
06:02 46.6 °F /  8.1 °C 45.2 °F /  7.3 °C 30.21in /  1022.9hPa WSW 2.3mph /  3.7km/h 2.3mph /  3.7km/h 95% 0.00in /  0cm
06:07 46.8 °F /  8.2 °C 45.4 °F /  7.4 °C 30.21in /  1022.9hPa WSW 3.5mph /  5.6km/h 3.5mph /  5.6km/h 95% 0.00in /  0cm
06:12 46.8 °F /  8.2 °C 45.4 °F /  7.4 °C 30.21in /  1022.9hPa WNW 3.9mph /  6.3km/h 3.9mph /  6.3km/h 95% 0.00in /  0cm
06:17 46.9 °F /  8.3 °C 45.3 °F /  7.4 °C 30.21in /  1022.9hPa WSW 3.5mph /  5.6km/h 3.5mph /  5.6km/h 94% 0.00in /  0cm
06:22 46.9 °F /  8.3 °C 45.3 °F /  7.4 °C 30.21in /  1022.9hPa WSW 4.0mph /  6.4km/h 4.0mph /  6.4km/h 94% 0.00in /  0cm
06:27 46.9 °F /  8.3 °C 45.3 °F /  7.4 °C 30.21in /  1022.9hPa WSW 1.2mph /  1.9km/h 1.2mph /  1.9km/h 94% 0.00in /  0cm
06:32 46.9 °F /  8.3 °C 45.3 °F /  7.4 °C 30.22in /  1023.2hPa SW 3.4mph /  5.5km/h 3.4mph /  5.5km/h 94% 0.00in /  0cm
06:37 46.9 °F /  8.3 °C 45.3 °F /  7.4 °C 30.21in /  1022.9hPa SE 2.3mph /  3.7km/h 2.3mph /  3.7km/h 94% 0.00in /  0cm
06:42 46.9 °F /  8.3 °C 45.0 °F /  7.2 °C 30.21in /  1022.9hPa WSW 3.5mph /  5.6km/h 3.5mph /  5.6km/h 93% 0.00in /  0cm
06:47 46.8 °F /  8.2 °C 44.8 °F /  7.1 °C 30.22in /  1023.2hPa SSW 3.8mph /  6.1km/h 3.8mph /  6.1km/h 93% 0.00in /  0cm
06:52 46.9 °F /  8.3 °C 45.0 °F /  7.2 °C 30.22in /  1023.2hPa Calm     93% 0.00in /  0cm
06:57 47.1 °F /  8.4 °C 45.2 °F /  7.3 °C 30.22in /  1023.2hPa NNW 2.3mph /  3.7km/h 2.3mph /  3.7km/h 93% 0.00in /  0cm
07:02 46.9 °F /  8.3 °C 45.0 °F /  7.2 °C 30.22in /  1023.2hPa South 2.3mph /  3.7km/h 2.3mph /  3.7km/h 93% 0.00in /  0cm
07:07 46.8 °F /  8.2 °C 44.8 °F /  7.1 °C 30.22in /  1023.2hPa West 3.2mph /  5.1km/h 3.2mph /  5.1km/h 93% 0.00in /  0cm
07:12 46.8 °F /  8.2 °C 44.8 °F /  7.1 °C 30.22in /  1023.2hPa SSW 2.3mph /  3.7km/h 2.3mph /  3.7km/h 93% 0.00in /  0cm
07:17 46.8 °F /  8.2 °C 44.8 °F /  7.1 °C 30.22in /  1023.2hPa West 3.5mph /  5.6km/h 3.5mph /  5.6km/h 93% 0.00in /  0cm
07:22 47.1 °F /  8.4 °C 45.2 °F /  7.3 °C 30.22in /  1023.2hPa West 3.5mph /  5.6km/h 3.5mph /  5.6km/h 93% 0.00in /  0cm
07:27 47.1 °F /  8.4 °C 45.2 °F /  7.3 °C 30.22in /  1023.2hPa West 3.5mph /  5.6km/h 3.5mph /  5.6km/h 93% 0.00in /  0cm
07:32 47.1 °F /  8.4 °C 45.2 °F /  7.3 °C 30.22in /  1023.2hPa WSW 1.2mph /  1.9km/h 1.2mph /  1.9km/h 93% 0.00in /  0cm
07:37 46.9 °F /  8.3 °C 45.0 °F /  7.2 °C 30.23in /  1023.6hPa WSW 2.5mph /  4km/h 2.5mph /  4km/h 93% 0.00in /  0cm
07:42 47.1 °F /  8.4 °C 45.2 °F /  7.3 °C 30.23in /  1023.6hPa West 4.6mph /  7.4km/h 4.6mph /  7.4km/h 93% 0.00in /  0cm
07:47 47.3 °F /  8.5 °C 45.1 °F /  7.3 °C 30.25in /  1024.3hPa WSW 3.5mph /  5.6km/h 3.5mph /  5.6km/h 92% 0.00in /  0cm
07:52 47.1 °F /  8.4 °C 45.2 °F /  7.3 °C 30.25in /  1024.3hPa WNW 2.3mph /  3.7km/h 2.3mph /  3.7km/h 93% 0.00in /  0cm
07:57 47.1 °F /  8.4 °C 44.9 °F /  7.2 °C 30.24in /  1023.9hPa WNW 2.3mph /  3.7km/h 2.3mph /  3.7km/h 92% 0.00in /  0cm
08:02 47.1 °F /  8.4 °C 44.9 °F /  7.2 °C 30.25in /  1024.3hPa West 0.6mph /  1km/h 1.0mph /  1.6km/h 92% 0.00in /  0cm
08:07 47.3 °F /  8.5 °C 45.1 °F /  7.3 °C 30.24in /  1023.9hPa WSW 4.6mph /  7.4km/h 4.6mph /  7.4km/h 92% 0.00in /  0cm
08:12 47.3 °F /  8.5 °C 45.1 °F /  7.3 °C 30.25in /  1024.3hPa SSE 2.3mph /  3.7km/h 2.3mph /  3.7km/h 92% 0.00in /  0cm
08:17 46.9 °F /  8.3 °C 45.0 °F /  7.2 °C 30.25in /  1024.3hPa WSW 4.6mph /  7.4km/h 4.6mph /  7.4km/h 93% 0.00in /  0cm
08:22 46.9 °F /  8.3 °C 45.0 °F /  7.2 °C 30.25in /  1024.3hPa West 1.2mph /  1.9km/h 1.2mph /  1.9km/h 93% 0.00in /  0cm
08:27 47.1 °F /  8.4 °C 44.9 °F /  7.2 °C 30.25in /  1024.3hPa Calm     92% 0.00in /  0cm
08:32 47.3 °F /  8.5 °C 45.4 °F /  7.4 °C 30.25in /  1024.3hPa SW 2.3mph /  3.7km/h 2.3mph /  3.7km/h 93% 0.00in /  0cm
08:37 47.5 °F /  8.6 °C 45.6 °F /  7.6 °C 30.25in /  1024.3hPa Calm     93% 0.00in /  0cm
08:42 47.7 °F /  8.7 °C 45.5 °F /  7.5 °C 30.25in /  1024.3hPa WNW 5.8mph /  9.3km/h 5.8mph /  9.3km/h 92% 0.00in /  0cm
08:47 48.0 °F /  8.9 °C 45.8 °F /  7.7 °C 30.25in /  1024.3hPa East 3.5mph /  5.6km/h 3.5mph /  5.6km/h 92% 0.00in /  0cm
08:52 48.0 °F /  8.9 °C 45.8 °F /  7.7 °C 30.25in /  1024.3hPa WSW 4.8mph /  7.7km/h 4.8mph /  7.7km/h 92% 0.00in /  0cm
08:57 48.0 °F /  8.9 °C 45.8 °F /  7.7 °C 30.25in /  1024.3hPa SW 2.4mph /  3.9km/h 2.4mph /  3.9km/h 92% 0.00in /  0cm
09:02 48.0 °F /  8.9 °C 45.8 °F /  7.7 °C 30.25in /  1024.3hPa ESE 2.3mph /  3.7km/h   92% 0.00in /  0cm
09:07 48.0 °F /  8.9 °C 45.8 °F /  7.7 °C 30.25in /  1024.3hPa NW 2.3mph /  3.7km/h 2.3mph /  3.7km/h 92% 0.00in /  0cm
09:12 48.0 °F /  8.9 °C 45.8 °F /  7.7 °C 30.24in /  1023.9hPa Calm   0.2mph /  0.3km/h 92% 0.00in /  0cm
09:17 48.0 °F /  8.9 °C 45.8 °F /  7.7 °C 30.25in /  1024.3hPa WNW 2.3mph /  3.7km/h   92% 0.00in /  0cm
09:22 48.0 °F /  8.9 °C 45.5 °F /  7.5 °C 30.25in /  1024.3hPa West 3.5mph /  5.6km/h 3.5mph /  5.6km/h 91% 0.00in /  0cm
09:27 48.0 °F /  8.9 °C 45.8 °F /  7.7 °C 30.25in /  1024.3hPa West 1.3mph /  2.1km/h 1.3mph /  2.1km/h 92% 0.00in /  0cm
09:32 48.0 °F /  8.9 °C 45.8 °F /  7.7 °C 30.25in /  1024.3hPa Calm     92% 0.00in /  0cm
09:37 48.0 °F /  8.9 °C 45.8 °F /  7.7 °C 30.25in /  1024.3hPa West 3.5mph /  5.6km/h 3.5mph /  5.6km/h 92% 0.00in /  0cm
09:42 48.0 °F /  8.9 °C 45.5 °F /  7.5 °C 30.25in /  1024.3hPa West 1.2mph /  1.9km/h 1.2mph /  1.9km/h 91% 0.00in /  0cm
09:47 48.0 °F /  8.9 °C 45.8 °F /  7.7 °C 30.25in /  1024.3hPa WNW 3.5mph /  5.6km/h 3.5mph /  5.6km/h 92% 0.00in /  0cm
09:52 48.0 °F /  8.9 °C 45.8 °F /  7.7 °C 30.25in /  1024.3hPa ESE 3.5mph /  5.6km/h 3.5mph /  5.6km/h 92% 0.00in /  0cm
09:57 48.2 °F /  9 °C 46.0 °F /  7.8 °C 30.25in /  1024.3hPa West 2.3mph /  3.7km/h 2.3mph /  3.7km/h 92% 0.00in /  0cm
10:02 48.2 °F /  9 °C 46.0 °F /  7.8 °C 30.25in /  1024.3hPa Calm     92% 0.00in /  0cm
10:07 48.4 °F /  9.1 °C 45.9 °F /  7.7 °C 30.25in /  1024.3hPa WSW 2.3mph /  3.7km/h 2.3mph /  3.7km/h 91% 0.00in /  0cm
10:12 48.6 °F /  9.2 °C 46.3 °F /  7.9 °C 30.24in /  1023.9hPa South 2.3mph /  3.7km/h   92% 0.00in /  0cm
10:17 48.7 °F /  9.3 °C 46.5 °F /  8.1 °C 30.24in /  1023.9hPa Calm   0.2mph /  0.3km/h 92% 0.00in /  0cm
10:22 49.3 °F /  9.6 °C 46.8 °F /  8.2 °C 30.25in /  1024.3hPa SW 1.2mph /  1.9km/h 1.2mph /  1.9km/h 91% 0.00in /  0cm
10:27 49.3 °F /  9.6 °C 46.8 °F /  8.2 °C 30.24in /  1023.9hPa NNE 1.2mph /  1.9km/h 1.2mph /  1.9km/h 91% 0.00in /  0cm
10:32 49.3 °F /  9.6 °C 46.8 °F /  8.2 °C 30.24in /  1023.9hPa WNW 1.9mph /  3.1km/h 1.9mph /  3.1km/h 91% 0.00in /  0cm
10:37 49.6 °F /  9.8 °C 46.8 °F /  8.2 °C 30.23in /  1023.6hPa West 2.5mph /  4km/h 2.5mph /  4km/h 90% 0.00in /  0cm
10:42 50.0 °F /  10 °C 47.2 °F /  8.4 °C 30.23in /  1023.6hPa NNW 5.8mph /  9.3km/h 5.8mph /  9.3km/h 90% 0.00in /  0cm
10:47 49.8 °F /  9.9 °C 46.7 °F /  8.2 °C 30.24in /  1023.9hPa West 2.3mph /  3.7km/h 2.3mph /  3.7km/h 89% 0.00in /  0cm
10:52 49.8 °F /  9.9 °C 46.7 °F /  8.2 °C 30.24in /  1023.9hPa WNW 2.3mph /  3.7km/h 2.3mph /  3.7km/h 89% 0.00in /  0cm
10:57 50.4 °F /  10.2 °C 47.2 °F /  8.4 °C 30.24in /  1023.9hPa West 4.6mph /  7.4km/h 4.6mph /  7.4km/h 89% 0.00in /  0cm
11:02 50.7 °F /  10.4 °C 47.3 °F /  8.5 °C 30.24in /  1023.9hPa Calm     88% 0.00in /  0cm
11:07 50.7 °F /  10.4 °C 47.6 °F /  8.7 °C 30.24in /  1023.9hPa WSW 5.6mph /  9km/h 5.6mph /  9km/h 89% 0.00in /  0cm
11:12 50.7 °F /  10.4 °C 47.3 °F /  8.5 °C 30.24in /  1023.9hPa WSW 3.5mph /  5.6km/h 3.5mph /  5.6km/h 88% 0.00in /  0cm
11:17 50.7 °F /  10.4 °C 47.3 °F /  8.5 °C 30.24in /  1023.9hPa Calm     88% 0.00in /  0cm
11:22 50.7 °F /  10.4 °C 47.3 °F /  8.5 °C 30.24in /  1023.9hPa WSW 3.2mph /  5.1km/h 3.2mph /  5.1km/h 88% 0.00in /  0cm
11:27 50.9 °F /  10.5 °C 47.5 °F /  8.6 °C 30.24in /  1023.9hPa WSW 4.6mph /  7.4km/h 4.6mph /  7.4km/h 88% 0.00in /  0cm
11:32 50.9 °F /  10.5 °C 47.5 °F /  8.6 °C 30.24in /  1023.9hPa South 4.6mph /  7.4km/h 4.6mph /  7.4km/h 88% 0.00in /  0cm
11:37 51.1 °F /  10.6 °C 47.3 °F /  8.5 °C 30.24in /  1023.9hPa WSW 3.5mph /  5.6km/h 3.5mph /  5.6km/h 87% 0.00in /  0cm
11:42 50.9 °F /  10.5 °C 46.9 °F /  8.3 °C 30.25in /  1024.3hPa West 3.5mph /  5.6km/h 3.5mph /  5.6km/h 86% 0.00in /  0cm
11:47 50.7 °F /  10.4 °C 47.0 °F /  8.3 °C 30.25in /  1024.3hPa SW 4.6mph /  7.4km/h 4.6mph /  7.4km/h 87% 0.00in /  0cm
11:52 50.9 °F /  10.5 °C 46.9 °F /  8.3 °C 30.25in /  1024.3hPa WNW 2.3mph /  3.7km/h 2.3mph /  3.7km/h 86% 0.00in /  0cm
11:57 51.3 °F /  10.7 °C 47.5 °F /  8.6 °C 30.25in /  1024.3hPa WNW 2.7mph /  4.3km/h 2.7mph /  4.3km/h 87% 0.00in /  0cm
14:01 51.3 °F /  10.7 °C 47.2 °F /  8.4 °C 30.25in /  1024.3hPa WSW 4.6mph /  7.4km/h   86% 0.00in /  0cm
14:06 52.7 °F /  11.5 °C 49.2 °F /  9.6 °C 30.23in /  1023.6hPa WSW 3.5mph /  5.6km/h 3.5mph /  5.6km/h 88% 0.00in /  0cm
14:11 52.7 °F /  11.5 °C 49.2 °F /  9.6 °C 30.22in /  1023.2hPa WSW 3.9mph /  6.3km/h 3.9mph /  6.3km/h 88% 0.00in /  0cm
14:16 52.5 °F /  11.4 °C 49.1 °F /  9.5 °C 30.22in /  1023.2hPa NNW 4.6mph /  7.4km/h 4.6mph /  7.4km/h 88% 0.00in /  0cm
14:21 52.5 °F /  11.4 °C 48.8 °F /  9.3 °C 30.22in /  1023.2hPa WSW 2.2mph /  3.5km/h 2.2mph /  3.5km/h 87% 0.00in /  0cm
14:26 52.5 °F /  11.4 °C 49.1 °F /  9.5 °C 30.22in /  1023.2hPa SSW 3.5mph /  5.6km/h 3.5mph /  5.6km/h 88% 0.00in /  0cm
14:31 52.7 °F /  11.5 °C 49.2 °F /  9.6 °C 30.22in /  1023.2hPa Calm     88% 0.00in /  0cm
14:36 52.7 °F /  11.5 °C 48.9 °F /  9.4 °C 30.22in /  1023.2hPa Calm     87% 0.00in /  0cm
14:41 52.7 °F /  11.5 °C 49.2 °F /  9.6 °C 30.22in /  1023.2hPa Calm     88% 0.00in /  0cm
14:46 52.5 °F /  11.4 °C 49.1 °F /  9.5 °C 30.22in /  1023.2hPa SW 3.5mph /  5.6km/h 3.5mph /  5.6km/h 88% 0.00in /  0cm
14:51 52.2 °F /  11.2 °C 48.7 °F /  9.3 °C 30.22in /  1023.2hPa West 1.2mph /  1.9km/h 1.8mph /  2.9km/h 88% 0.00in /  0cm
14:56 52.3 °F /  11.3 °C 49.2 °F /  9.6 °C 30.22in /  1023.2hPa Calm   0.5mph /  0.8km/h 89% 0.00in /  0cm
15:01 52.2 °F /  11.2 °C 49.0 °F /  9.4 °C 30.22in /  1023.2hPa Calm     89% 0.00in /  0cm
15:06 52.3 °F /  11.3 °C 49.5 °F /  9.7 °C 30.22in /  1023.2hPa West 2.3mph /  3.7km/h   90% 0.00in /  0cm
15:11 52.5 °F /  11.4 °C 49.1 °F /  9.5 °C 30.21in /  1022.9hPa WSW 4.6mph /  7.4km/h 4.6mph /  7.4km/h 88% 0.00in /  0cm
15:16 52.7 °F /  11.5 °C 49.2 °F /  9.6 °C 30.21in /  1022.9hPa SSW 4.6mph /  7.4km/h 4.6mph /  7.4km/h 88% 0.00in /  0cm
15:21 52.9 °F /  11.6 °C 49.1 °F /  9.5 °C 30.20in /  1022.6hPa South 2.3mph /  3.7km/h 2.3mph /  3.7km/h 87% 0.00in /  0cm
15:26 53.1 °F /  11.7 °C 49.3 °F /  9.6 °C 30.20in /  1022.6hPa WNW 5.8mph /  9.3km/h 5.8mph /  9.3km/h 87% 0.00in /  0cm
15:31 53.1 °F /  11.7 °C 49.3 °F /  9.6 °C 30.20in /  1022.6hPa Calm     87% 0.00in /  0cm
15:36 52.9 °F /  11.6 °C 49.1 °F /  9.5 °C 30.21in /  1022.9hPa NW 2.3mph /  3.7km/h 2.3mph /  3.7km/h 87% 0.00in /  0cm
15:41 53.1 °F /  11.7 °C 49.3 °F /  9.6 °C 30.20in /  1022.6hPa NNW 2.3mph /  3.7km/h   87% 0.00in /  0cm
15:46 53.2 °F /  11.8 °C 49.2 °F /  9.6 °C 30.20in /  1022.6hPa West 3.5mph /  5.6km/h   86% 0.00in /  0cm
15:51 53.2 °F /  11.8 °C 48.8 °F /  9.3 °C 30.20in /  1022.6hPa WNW 3.5mph /  5.6km/h 3.5mph /  5.6km/h 85% 0.00in /  0cm
15:56 53.1 °F /  11.7 °C 48.7 °F /  9.3 °C 30.19in /  1022.2hPa West 3.5mph /  5.6km/h 3.5mph /  5.6km/h 85% 0.00in /  0cm
16:01 53.1 °F /  11.7 °C 49.0 °F /  9.4 °C 30.19in /  1022.2hPa Calm     86% 0.00in /  0cm
16:07 53.1 °F /  11.7 °C 48.7 °F /  9.3 °C 30.19in /  1022.2hPa West 5.8mph /  9.3km/h 5.8mph /  9.3km/h 85% 0.00in /  0cm
16:12 52.7 °F /  11.5 °C 48.6 °F /  9.2 °C 30.19in /  1022.2hPa NW 3.5mph /  5.6km/h   86% 0.00in /  0cm
16:17 52.5 °F /  11.4 °C 48.8 °F /  9.3 °C 30.19in /  1022.2hPa West 2.8mph /  4.5km/h 2.8mph /  4.5km/h 87% 0.00in /  0cm
16:22 52.3 °F /  11.3 °C 48.6 °F /  9.2 °C 30.19in /  1022.2hPa NW 1.2mph /  1.9km/h 1.2mph /  1.9km/h 87% 0.00in /  0cm
16:27 52.3 °F /  11.3 °C 48.6 °F /  9.2 °C 30.19in /  1022.2hPa WNW 4.6mph /  7.4km/h 4.6mph /  7.4km/h 87% 0.00in /  0cm
16:32 52.3 °F /  11.3 °C 48.6 °F /  9.2 °C 30.19in /  1022.2hPa Calm     87% 0.00in /  0cm
16:37 52.5 °F /  11.4 °C 48.8 °F /  9.3 °C 30.19in /  1022.2hPa NNW 3.5mph /  5.6km/h 3.5mph /  5.6km/h 87% 0.00in /  0cm
16:42 52.5 °F /  11.4 °C 48.8 °F /  9.3 °C 30.19in /  1022.2hPa WNW 4.6mph /  7.4km/h 4.6mph /  7.4km/h 87% 0.00in /  0cm
16:47 52.5 °F /  11.4 °C 49.1 °F /  9.5 °C 30.19in /  1022.2hPa NW 3.5mph /  5.6km/h 3.5mph /  5.6km/h 88% 0.00in /  0cm
16:52 52.5 °F /  11.4 °C 49.1 °F /  9.5 °C 30.19in /  1022.2hPa West 3.5mph /  5.6km/h 3.5mph /  5.6km/h 88% 0.00in /  0cm
16:57 52.5 °F /  11.4 °C 48.8 °F /  9.3 °C 30.19in /  1022.2hPa WNW 4.6mph /  7.4km/h 4.6mph /  7.4km/h 87% 0.00in /  0cm
17:02 52.5 °F /  11.4 °C 48.8 °F /  9.3 °C 30.19in /  1022.2hPa WNW 2.3mph /  3.7km/h 2.3mph /  3.7km/h 87% 0.00in /  0cm
17:07 52.5 °F /  11.4 °C 48.8 °F /  9.3 °C 30.19in /  1022.2hPa Calm     87% 0.00in /  0cm
17:12 52.5 °F /  11.4 °C 49.1 °F /  9.5 °C 30.19in /  1022.2hPa NW 2.3mph /  3.7km/h   88% 0.00in /  0cm
17:17 52.5 °F /  11.4 °C 49.1 °F /  9.5 °C 30.19in /  1022.2hPa WNW 1.2mph /  1.9km/h   88% 0.00in /  0cm
17:22 52.3 °F /  11.3 °C 48.9 °F /  9.4 °C 30.18in /  1021.9hPa SW 6.9mph /  11.1km/h 6.9mph /  11.1km/h 88% 0.00in /  0cm
17:27 52.2 °F /  11.2 °C 48.4 °F /  9.1 °C 30.18in /  1021.9hPa SW 5.8mph /  9.3km/h 5.8mph /  9.3km/h 87% 0.00in /  0cm
17:32 52.2 °F /  11.2 °C 48.7 °F /  9.3 °C 30.18in /  1021.9hPa NW 4.3mph /  6.9km/h 4.3mph /  6.9km/h 88% 0.00in /  0cm
17:37 52.2 °F /  11.2 °C 48.7 °F /  9.3 °C 30.18in /  1021.9hPa WSW 4.6mph /  7.4km/h 4.6mph /  7.4km/h 88% 0.00in /  0cm
17:42 52.0 °F /  11.1 °C 48.5 °F /  9.2 °C 30.18in /  1021.9hPa Calm     88% 0.00in /  0cm
17:47 51.8 °F /  11 °C 48.7 °F /  9.3 °C 30.18in /  1021.9hPa Calm   0.1mph /  0.2km/h 89% 0.00in /  0cm
17:52 51.8 °F /  11 °C 48.7 °F /  9.3 °C 30.19in /  1022.2hPa WSW 3.5mph /  5.6km/h   89% 0.00in /  0cm
17:57 51.8 °F /  11 °C 48.7 °F /  9.3 °C 30.18in /  1021.9hPa West 0.5mph /  0.8km/h 0.5mph /  0.8km/h 89% 0.00in /  0cm
18:02 51.8 °F /  11 °C 48.7 °F /  9.3 °C 30.19in /  1022.2hPa SSW 2.3mph /  3.7km/h 2.3mph /  3.7km/h 89% 0.00in /  0cm
18:07 51.8 °F /  11 °C 48.7 °F /  9.3 °C 30.18in /  1021.9hPa Calm     89% 0.00in /  0cm
18:12 51.6 °F /  10.9 °C 48.8 °F /  9.3 °C 30.18in /  1021.9hPa West 1.2mph /  1.9km/h   90% 0.00in /  0cm
18:17 51.6 °F /  10.9 °C 48.5 °F /  9.2 °C 30.19in /  1022.2hPa Calm     89% 0.00in /  0cm
18:23 51.3 °F /  10.7 °C 48.7 °F /  9.3 °C 30.18in /  1021.9hPa SSW 2.3mph /  3.7km/h   91% 0.00in /  0cm
18:28 51.3 °F /  10.7 °C 48.7 °F /  9.3 °C 30.19in /  1022.2hPa WSW 4.6mph /  7.4km/h 4.6mph /  7.4km/h 91% 0.00in /  0cm
18:33 51.3 °F /  10.7 °C 48.7 °F /  9.3 °C 30.18in /  1021.9hPa Calm     91% 0.00in /  0cm
18:38 51.1 °F /  10.6 °C 48.5 °F /  9.2 °C 30.18in /  1021.9hPa WSW 3.5mph /  5.6km/h 3.5mph /  5.6km/h 91% 0.00in /  0cm
18:43 51.1 °F /  10.6 °C 48.5 °F /  9.2 °C 30.17in /  1021.6hPa Calm     91% 0.00in /  0cm
18:48 50.9 °F /  10.5 °C 48.4 °F /  9.1 °C 30.17in /  1021.6hPa Calm     91% 0.00in /  0cm
18:53 50.9 °F /  10.5 °C 48.7 °F /  9.3 °C 30.17in /  1021.6hPa West 1.0mph /  1.6km/h 1.0mph /  1.6km/h 92% 0.00in /  0cm
18:58 50.9 °F /  10.5 °C 48.7 °F /  9.3 °C 30.17in /  1021.6hPa Calm     92% 0.00in /  0cm
19:03 50.7 °F /  10.4 °C 48.5 °F /  9.2 °C 30.17in /  1021.6hPa Calm     92% 0.00in /  0cm
19:08 50.7 °F /  10.4 °C 48.5 °F /  9.2 °C 30.17in /  1021.6hPa Calm     92% 0.00in /  0cm
19:13 50.7 °F /  10.4 °C 48.5 °F /  9.2 °C 30.17in /  1021.6hPa West 1.2mph /  1.9km/h 1.2mph /  1.9km/h 92% 0.00in /  0cm
19:19 50.9 °F /  10.5 °C 48.7 °F /  9.3 °C 30.16in /  1021.2hPa West 1.2mph /  1.9km/h   92% 0.00in /  0cm
19:24 50.7 °F /  10.4 °C 48.5 °F /  9.2 °C 30.16in /  1021.2hPa WNW 1.2mph /  1.9km/h   92% 0.00in /  0cm
19:29 50.7 °F /  10.4 °C 48.5 °F /  9.2 °C 30.16in /  1021.2hPa Calm     92% 0.00in /  0cm
19:34 50.7 °F /  10.4 °C 48.2 °F /  9 °C 30.16in /  1021.2hPa Calm     91% 0.00in /  0cm
19:39 50.7 °F /  10.4 °C 48.5 °F /  9.2 °C 30.16in /  1021.2hPa WNW 0.8mph /  1.3km/h   92% 0.00in /  0cm
19:44 50.7 °F /  10.4 °C 48.5 °F /  9.2 °C 30.16in /  1021.2hPa Calm     92% 0.00in /  0cm
19:49 50.4 °F /  10.2 °C 48.4 °F /  9.1 °C 30.16in /  1021.2hPa Calm     93% 0.00in /  0cm
19:54 50.4 °F /  10.2 °C 48.4 °F /  9.1 °C 30.15in /  1020.9hPa Calm     93% 0.01in /  0.25cm
19:59 50.0 °F /  10 °C 48.6 °F /  9.2 °C 30.15in /  1020.9hPa Calm     95% 0.01in /  0.25cm
20:04 50.0 °F /  10 °C 48.6 °F /  9.2 °C 30.16in /  1021.2hPa Calm     95% 0.01in /  0.25cm
20:09 49.8 °F /  9.9 °C 48.4 °F /  9.1 °C 30.16in /  1021.2hPa Calm     95% 0.01in /  0.25cm
20:14 49.8 °F /  9.9 °C 48.7 °F /  9.3 °C 30.16in /  1021.2hPa Calm     96% 0.01in /  0.25cm
20:19 49.6 °F /  9.8 °C 48.5 °F /  9.2 °C 30.16in /  1021.2hPa Calm     96% 0.01in /  0.25cm
20:24 49.5 °F /  9.7 °C 48.4 °F /  9.1 °C 30.16in /  1021.2hPa Calm     96% 0.01in /  0.25cm
20:29 49.1 °F /  9.5 °C 48.3 °F /  9.1 °C 30.15in /  1020.9hPa Calm     97% 0.01in /  0.25cm
20:34 49.1 °F /  9.5 °C 48.6 °F /  9.2 °C 30.15in /  1020.9hPa Calm     98% 0.01in /  0.25cm
20:39 49.1 °F /  9.5 °C 48.6 °F /  9.2 °C 30.15in /  1020.9hPa Calm     98% 0.01in /  0.25cm
20:44 49.1 °F /  9.5 °C 48.6 °F /  9.2 °C 30.15in /  1020.9hPa Calm     98% 0.01in /  0.25cm
20:49 49.1 °F /  9.5 °C 48.6 °F /  9.2 °C 30.15in /  1020.9hPa Calm     98% 0.01in /  0.25cm
20:54 49.1 °F /  9.5 °C 48.6 °F /  9.2 °C 30.15in /  1020.9hPa Calm     98% 0.00in /  0cm
20:59 49.1 °F /  9.5 °C 48.6 °F /  9.2 °C 30.15in /  1020.9hPa Calm     98% 0.00in /  0cm
21:04 49.1 °F /  9.5 °C 48.6 °F /  9.2 °C 30.15in /  1020.9hPa Calm     98% 0.00in /  0cm
21:09 49.3 °F /  9.6 °C 48.7 °F /  9.3 °C 30.15in /  1020.9hPa Calm     98% 0.00in /  0cm
21:14 49.3 °F /  9.6 °C 49.0 °F /  9.4 °C 30.14in /  1020.5hPa Calm   0.1mph /  0.2km/h 99% 0.00in /  0cm
21:20 49.5 °F /  9.7 °C 49.2 °F /  9.6 °C 30.14in /  1020.5hPa Calm     99% 0.00in /  0cm
21:25 49.5 °F /  9.7 °C 49.2 °F /  9.6 °C 30.14in /  1020.5hPa Calm     99% 0.00in /  0cm
21:30 49.5 °F /  9.7 °C 49.2 °F /  9.6 °C 30.14in /  1020.5hPa Calm     99% 0.00in /  0cm
21:35 49.5 °F /  9.7 °C 49.2 °F /  9.6 °C 30.14in /  1020.5hPa Calm     99% 0.00in /  0cm
21:40 49.5 °F /  9.7 °C 49.5 °F /  9.7 °C 30.14in /  1020.5hPa Calm     100% 0.00in /  0cm
21:45 49.5 °F /  9.7 °C 49.2 °F /  9.6 °C 30.14in /  1020.5hPa Calm     99% 0.00in /  0cm
21:50 49.5 °F /  9.7 °C 49.2 °F /  9.6 °C 30.14in /  1020.5hPa Calm     99% 0.00in /  0cm
21:55 49.1 °F /  9.5 °C 48.8 °F /  9.3 °C 30.14in /  1020.5hPa Calm     99% 0.00in /  0cm
22:00 49.1 °F /  9.5 °C 48.8 °F /  9.3 °C 30.14in /  1020.5hPa Calm     99% 0.00in /  0cm
22:05 48.7 °F /  9.3 °C 48.7 °F /  9.3 °C 30.14in /  1020.5hPa Calm     100% 0.00in /  0cm
22:10 48.7 °F /  9.3 °C 48.7 °F /  9.3 °C 30.14in /  1020.5hPa Calm     100% 0.00in /  0cm
22:15 48.7 °F /  9.3 °C 48.7 °F /  9.3 °C 30.14in /  1020.5hPa Calm     100% 0.00in /  0cm
22:20 48.9 °F /  9.4 °C 48.9 °F /  9.4 °C 30.14in /  1020.5hPa Calm     100% 0.00in /  0cm
22:25 48.9 °F /  9.4 °C 48.9 °F /  9.4 °C 30.14in /  1020.5hPa Calm     100% 0.00in /  0cm
22:30 48.7 °F /  9.3 °C 48.7 °F /  9.3 °C 30.14in /  1020.5hPa Calm     100% 0.00in /  0cm
Wether-Above
Compliments of Weather Underground
Welcome to Weather-Above
Cheddleton weather station supplies various organisations with data from our weather station one of them is the weather Underground this information displayed here is coming from the weather Underground server 

If any information is used please acknowledge the source to www weather-above.com or weather Underground